sensor_id;sensor_type;location;lat;lon;timestamp;pressure;altitude;pressure_sealevel;temperature;humidity
44734;BME280;30462;52.446;-1.930;2023-06-04T00:00:19;101137.8633;;;;
44734;BME280;30462;52.446;-1.930;2023-06-04T00:01:17;101137.9961;;;;
44734;BME280;30462;52.446;-1.930;2023-06-04T00:02:18;101136.2695;;;;
44734;BME280;30462;52.446;-1.930;2023-06-04T00:03:18;101143.0664;;;;
44734;BME280;30462;52.446;-1.930;2023-06-04T00:04:18;101141.8203;;;;
44734;BME280;30462;52.446;-1.930;2023-06-04T00:05:17;101137.4453;;;;
44734;BME280;30462;52.446;-1.930;2023-06-04T00:06:18;101140.3711;;;;
44734;BME280;30462;52.446;-1.930;2023-06-04T00:07:18;101140.8633;;;;
44734;BME280;30462;52.446;-1.930;2023-06-04T00:08:19;101141.0039;;;;
44734;BME280;30462;52.446;-1.930;2023-06-04T00:09:18;101144.6523;;;;
44734;BME280;30462;52.446;-1.930;2023-06-04T00:10:18;101140.0547;;;;
44734;BME280;30462;52.446;-1.930;2023-06-04T00:11:17;101140.25;;;;
44734;BME280;30462;52.446;-1.930;2023-06-04T00:12:18;101137.1094;;;;
44734;BME280;30462;52.446;-1.930;2023-06-04T00:13:18;101136.9063;;;;
44734;BME280;30462;52.446;-1.930;2023-06-04T00:14:18;101139.457;;;;
44734;BME280;30462;52.446;-1.930;2023-06-04T00:15:18;101139.0508;;;;
44734;BME280;30462;52.446;-1.930;2023-06-04T00:16:18;101139.0234;;;;
44734;BME280;30462;52.446;-1.930;2023-06-04T00:17:17;101138.8711;;;;
44734;BME280;30462;52.446;-1.930;2023-06-04T00:18:17;101141.5469;;;;
44734;BME280;30462;52.446;-1.930;2023-06-04T00:19:18;101139.0195;;;;
44734;BME280;30462;52.446;-1.930;2023-06-04T00:20:18;101143.043;;;;
44734;BME280;30462;52.446;-1.930;2023-06-04T00:21:18;101143.7148;;;;
44734;BME280;30462;52.446;-1.930;2023-06-04T00:22:18;101141.1445;;;;
44734;BME280;30462;52.446;-1.930;2023-06-04T00:23:17;101143.8672;;;;
44734;BME280;30462;52.446;-1.930;2023-06-04T00:24:18;101143.8008;;;;
44734;BME280;30462;52.446;-1.930;2023-06-04T00:25:18;101143.3594;;;;
44734;BME280;30462;52.446;-1.930;2023-06-04T00:26:18;101141.7383;;;;
44734;BME280;30462;52.446;-1.930;2023-06-04T00:27:18;101140.2109;;;;
44734;BME280;30462;52.446;-1.930;2023-06-04T00:28:17;101141.2734;;;;
44734;BME280;30462;52.446;-1.930;2023-06-04T00:29:18;101140.4648;;;;
44734;BME280;30462;52.446;-1.930;2023-06-04T00:30:17;101138.4922;;;;
44734;BME280;30462;52.446;-1.930;2023-06-04T00:31:18;101141.7422;;;;
44734;BME280;30462;52.446;-1.930;2023-06-04T00:32:18;101140.6016;;;;
44734;BME280;30462;52.446;-1.930;2023-06-04T00:33:19;101145.0273;;;;
44734;BME280;30462;52.446;-1.930;2023-06-04T00:34:17;101146.9141;;;;
44734;BME280;30462;52.446;-1.930;2023-06-04T00:35:18;101147.6094;;;;
44734;BME280;30462;52.446;-1.930;2023-06-04T00:36:18;101147.3828;;;;
44734;BME280;30462;52.446;-1.930;2023-06-04T00:37:18;101148.2383;;;;
44734;BME280;30462;52.446;-1.930;2023-06-04T00:38:18;101146.293;;;;
44734;BME280;30462;52.446;-1.930;2023-06-04T00:39:17;101143.3711;;;;
44734;BME280;30462;52.446;-1.930;2023-06-04T00:40:18;101143.8516;;;;
44734;BME280;30462;52.446;-1.930;2023-06-04T00:41:18;101148.6055;;;;
44734;BME280;30462;52.446;-1.930;2023-06-04T00:42:18;101145.7969;;;;
44734;BME280;30462;52.446;-1.930;2023-06-04T00:43:18;101145.707;;;;
44734;BME280;30462;52.446;-1.930;2023-06-04T00:44:17;101146.1563;;;;
44734;BME280;30462;52.446;-1.930;2023-06-04T00:45:18;101145.9609;;;;
44734;BME280;30462;52.446;-1.930;2023-06-04T00:46:18;101142.7734;;;;
44734;BME280;30462;52.446;-1.930;2023-06-04T00:47:18;101143.7227;;;;
44734;BME280;30462;52.446;-1.930;2023-06-04T00:48:18;101145.2305;;;;
44734;BME280;30462;52.446;-1.930;2023-06-04T00:49:18;101144.7773;;;;
44734;BME280;30462;52.446;-1.930;2023-06-04T00:50:18;101144.0195;;;;
44734;BME280;30462;52.446;-1.930;2023-06-04T00:51:18;101143.8945;;;;
44734;BME280;30462;52.446;-1.930;2023-06-04T00:52:17;101146.0781;;;;
44734;BME280;30462;52.446;-1.930;2023-06-04T00:53:18;101146.5586;;;;
44734;BME280;30462;52.446;-1.930;2023-06-04T00:54:17;101147.0586;;;;
44734;BME280;30462;52.446;-1.930;2023-06-04T00:55:17;101145.3711;;;;
44734;BME280;30462;52.446;-1.930;2023-06-04T00:56:18;101144.7148;;;;
44734;BME280;30462;52.446;-1.930;2023-06-04T00:57:18;101146.4375;;;;
44734;BME280;30462;52.446;-1.930;2023-06-04T00:58:18;101143.7109;;;;
44734;BME280;30462;52.446;-1.930;2023-06-04T00:59:18;101143.832;;;;
44734;BME280;30462;52.446;-1.930;2023-06-04T01:00:18;101146.418;;;;
44734;BME280;30462;52.446;-1.930;2023-06-04T01:01:20;101146.6289;;;;
44734;BME280;30462;52.446;-1.930;2023-06-04T01:02:18;101146.2969;;;;
44734;BME280;30462;52.446;-1.930;2023-06-04T01:03:18;101144.3633;;;;
44734;BME280;30462;52.446;-1.930;2023-06-04T01:04:20;101146.2734;;;;
44734;BME280;30462;52.446;-1.930;2023-06-04T01:05:19;101144.5156;;;;
44734;BME280;30462;52.446;-1.930;2023-06-04T01:06:21;101140.8398;;;;
44734;BME280;30462;52.446;-1.930;2023-06-04T01:07:17;101146.8242;;;;
44734;BME280;30462;52.446;-1.930;2023-06-04T01:08:18;101143.1797;;;;
44734;BME280;30462;52.446;-1.930;2023-06-04T01:09:18;101143.707;;;;
44734;BME280;30462;52.446;-1.930;2023-06-04T01:10:18;101139.1602;;;;
44734;BME280;30462;52.446;-1.930;2023-06-04T01:11:18;101142.543;;;;
44734;BME280;30462;52.446;-1.930;2023-06-04T01:12:18;101141.2305;;;;
44734;BME280;30462;52.446;-1.930;2023-06-04T01:13:18;101144.0859;;;;
44734;BME280;30462;52.446;-1.930;2023-06-04T01:14:18;101142.2773;;;;
44734;BME280;30462;52.446;-1.930;2023-06-04T01:15:18;101143.0625;;;;
44734;BME280;30462;52.446;-1.930;2023-06-04T01:16:17;101141.6719;;;;
44734;BME280;30462;52.446;-1.930;2023-06-04T01:17:19;101141.707;;;;
44734;BME280;30462;52.446;-1.930;2023-06-04T01:18:19;101138.0664;;;;
44734;BME280;30462;52.446;-1.930;2023-06-04T01:20:20;101135.3242;;;;
44734;BME280;30462;52.446;-1.930;2023-06-04T01:21:18;101137.8672;;;;
44734;BME280;30462;52.446;-1.930;2023-06-04T01:22:22;101138.7383;;;;
44734;BME280;30462;52.446;-1.930;2023-06-04T01:23:21;101138.1836;;;;
44734;BME280;30462;52.446;-1.930;2023-06-04T01:24:17;101142.0391;;;;
44734;BME280;30462;52.446;-1.930;2023-06-04T01:25:20;101140.1055;;;;
44734;BME280;30462;52.446;-1.930;2023-06-04T01:26:18;101140.2695;;;;
44734;BME280;30462;52.446;-1.930;2023-06-04T01:27:17;101140.1875;;;;
44734;BME280;30462;52.446;-1.930;2023-06-04T01:28:17;101142.5156;;;;
44734;BME280;30462;52.446;-1.930;2023-06-04T01:29:18;101143.1719;;;;
44734;BME280;30462;52.446;-1.930;2023-06-04T01:30:19;101145.0273;;;;
44734;BME280;30462;52.446;-1.930;2023-06-04T01:31:18;101145.668;;;;
44734;BME280;30462;52.446;-1.930;2023-06-04T01:32:18;101148.7383;;;;
44734;BME280;30462;52.446;-1.930;2023-06-04T01:33:18;101149.2969;;;;
44734;BME280;30462;52.446;-1.930;2023-06-04T01:34:17;101144.6016;;;;
44734;BME280;30462;52.446;-1.930;2023-06-04T01:35:18;101148.0938;;;;
44734;BME280;30462;52.446;-1.930;2023-06-04T01:36:18;101145.8438;;;;
44734;BME280;30462;52.446;-1.930;2023-06-04T01:37:18;101150.2461;;;;
44734;BME280;30462;52.446;-1.930;2023-06-04T01:38:18;101150.3789;;;;
44734;BME280;30462;52.446;-1.930;2023-06-04T01:39:18;101151.3281;;;;
44734;BME280;30462;52.446;-1.930;2023-06-04T01:40:18;101150.1953;;;;
44734;BME280;30462;52.446;-1.930;2023-06-04T01:41:17;101148.0742;;;;
44734;BME280;30462;52.446;-1.930;2023-06-04T01:42:18;101155.0977;;;;
44734;BME280;30462;52.446;-1.930;2023-06-04T01:43:18;101153.9023;;;;
44734;BME280;30462;52.446;-1.930;2023-06-04T01:44:18;101153.9336;;;;
44734;BME280;30462;52.446;-1.930;2023-06-04T01:45:18;101155.6914;;;;
44734;BME280;30462;52.446;-1.930;2023-06-04T01:46:18;101157.3945;;;;
44734;BME280;30462;52.446;-1.930;2023-06-04T01:47:17;101156.1133;;;;
44734;BME280;30462;52.446;-1.930;2023-06-04T01:48:18;101155.3789;;;;
44734;BME280;30462;52.446;-1.930;2023-06-04T01:49:18;101157.7695;;;;
44734;BME280;30462;52.446;-1.930;2023-06-04T01:50:18;101156.4102;;;;
44734;BME280;30462;52.446;-1.930;2023-06-04T01:51:18;101157.832;;;;
44734;BME280;30462;52.446;-1.930;2023-06-04T01:52:18;101157.9492;;;;
44734;BME280;30462;52.446;-1.930;2023-06-04T01:53:18;101156.8828;;;;
44734;BME280;30462;52.446;-1.930;2023-06-04T01:54:18;101157.7695;;;;
44734;BME280;30462;52.446;-1.930;2023-06-04T01:55:18;101158.9531;;;;
44734;BME280;30462;52.446;-1.930;2023-06-04T01:56:18;101158.0352;;;;
44734;BME280;30462;52.446;-1.930;2023-06-04T01:57:18;101158.5273;;;;
44734;BME280;30462;52.446;-1.930;2023-06-04T01:58:18;101158.1953;;;;
44734;BME280;30462;52.446;-1.930;2023-06-04T01:59:18;101160.3984;;;;
44734;BME280;30462;52.446;-1.930;2023-06-04T02:00:18;101158.9883;;;;
44734;BME280;30462;52.446;-1.930;2023-06-04T02:01:17;101160.1484;;;;
44734;BME280;30462;52.446;-1.930;2023-06-04T02:02:18;101155.9141;;;;
44734;BME280;30462;52.446;-1.930;2023-06-04T02:03:18;101159.0703;;;;
44734;BME280;30462;52.446;-1.930;2023-06-04T02:04:18;101158.2227;;;;
44734;BME280;30462;52.446;-1.930;2023-06-04T02:05:18;101157.1484;;;;
44734;BME280;30462;52.446;-1.930;2023-06-04T02:06:18;101159.9102;;;;
44734;BME280;30462;52.446;-1.930;2023-06-04T02:07:18;101159.457;;;;
44734;BME280;30462;52.446;-1.930;2023-06-04T02:08:18;101159.5898;;;;
44734;BME280;30462;52.446;-1.930;2023-06-04T02:09:18;101157.7344;;;;
44734;BME280;30462;52.446;-1.930;2023-06-04T02:10:18;101161.625;;;;
44734;BME280;30462;52.446;-1.930;2023-06-04T02:11:18;101154.6328;;;;
44734;BME280;30462;52.446;-1.930;2023-06-04T02:12:18;101159.2461;;;;
44734;BME280;30462;52.446;-1.930;2023-06-04T02:13:18;101159.5781;;;;
44734;BME280;30462;52.446;-1.930;2023-06-04T02:14:18;101161.8125;;;;
44734;BME280;30462;52.446;-1.930;2023-06-04T02:15:18;101159.8867;;;;
44734;BME280;30462;52.446;-1.930;2023-06-04T02:16:18;101158.457;;;;
44734;BME280;30462;52.446;-1.930;2023-06-04T02:17:18;101161.0977;;;;
44734;BME280;30462;52.446;-1.930;2023-06-04T02:18:19;101157.0078;;;;
44734;BME280;30462;52.446;-1.930;2023-06-04T02:19:18;101158.6172;;;;
44734;BME280;30462;52.446;-1.930;2023-06-04T02:20:17;101158.6289;;;;
44734;BME280;30462;52.446;-1.930;2023-06-04T02:21:18;101159.3672;;;;
44734;BME280;30462;52.446;-1.930;2023-06-04T02:22:18;101160.3867;;;;
44734;BME280;30462;52.446;-1.930;2023-06-04T02:23:18;101164.1797;;;;
44734;BME280;30462;52.446;-1.930;2023-06-04T02:24:18;101165.9961;;;;
44734;BME280;30462;52.446;-1.930;2023-06-04T02:25:18;101165.2266;;;;
44734;BME280;30462;52.446;-1.930;2023-06-04T02:26:18;101164.5469;;;;
44734;BME280;30462;52.446;-1.930;2023-06-04T02:27:18;101166.0234;;;;
44734;BME280;30462;52.446;-1.930;2023-06-04T02:28:18;101163.875;;;;
44734;BME280;30462;52.446;-1.930;2023-06-04T02:29:18;101162.1602;;;;
44734;BME280;30462;52.446;-1.930;2023-06-04T02:30:18;101159.9414;;;;
44734;BME280;30462;52.446;-1.930;2023-06-04T02:31:18;101163.0078;;;;
44734;BME280;30462;52.446;-1.930;2023-06-04T02:32:18;101161.8906;;;;
44734;BME280;30462;52.446;-1.930;2023-06-04T02:33:18;101163.1992;;;;
44734;BME280;30462;52.446;-1.930;2023-06-04T02:34:17;101164.1289;;;;
44734;BME280;30462;52.446;-1.930;2023-06-04T02:35:18;101163.8594;;;;
44734;BME280;30462;52.446;-1.930;2023-06-04T02:36:18;101161.9375;;;;
44734;BME280;30462;52.446;-1.930;2023-06-04T02:37:18;101161.2773;;;;
44734;BME280;30462;52.446;-1.930;2023-06-04T02:38:18;101160.3945;;;;
44734;BME280;30462;52.446;-1.930;2023-06-04T02:39:18;101160.9063;;;;
44734;BME280;30462;52.446;-1.930;2023-06-04T02:40:18;101162.1289;;;;
44734;BME280;30462;52.446;-1.930;2023-06-04T02:41:18;101158.6563;;;;
44734;BME280;30462;52.446;-1.930;2023-06-04T02:42:18;101158.8906;;;;
44734;BME280;30462;52.446;-1.930;2023-06-04T02:43:18;101163;;;;
44734;BME280;30462;52.446;-1.930;2023-06-04T02:44:17;101158.1953;;;;
44734;BME280;30462;52.446;-1.930;2023-06-04T02:45:18;101158.9063;;;;
44734;BME280;30462;52.446;-1.930;2023-06-04T02:46:18;101161.8594;;;;
44734;BME280;30462;52.446;-1.930;2023-06-04T02:47:18;101158.0039;;;;
44734;BME280;30462;52.446;-1.930;2023-06-04T02:48:18;101158.1445;;;;
44734;BME280;30462;52.446;-1.930;2023-06-04T02:49:18;101157.7031;;;;
44734;BME280;30462;52.446;-1.930;2023-06-04T02:50:18;101155.6172;;;;
44734;BME280;30462;52.446;-1.930;2023-06-04T02:51:17;101160.0859;;;;
44734;BME280;30462;52.446;-1.930;2023-06-04T02:52:18;101158.6172;;;;
44734;BME280;30462;52.446;-1.930;2023-06-04T02:53:18;101156.3242;;;;
44734;BME280;30462;52.446;-1.930;2023-06-04T02:54:18;101155.9961;;;;
44734;BME280;30462;52.446;-1.930;2023-06-04T02:55:18;101153.0625;;;;
44734;BME280;30462;52.446;-1.930;2023-06-04T02:56:18;101154.5195;;;;
44734;BME280;30462;52.446;-1.930;2023-06-04T02:57:17;101153.2813;;;;
44734;BME280;30462;52.446;-1.930;2023-06-04T02:58:18;101155.6016;;;;
44734;BME280;30462;52.446;-1.930;2023-06-04T02:59:18;101156.6211;;;;
44734;BME280;30462;52.446;-1.930;2023-06-04T03:00:18;101157.2695;;;;
44734;BME280;30462;52.446;-1.930;2023-06-04T03:01:18;101157.668;;;;
44734;BME280;30462;52.446;-1.930;2023-06-04T03:02:18;101155.6758;;;;
44734;BME280;30462;52.446;-1.930;2023-06-04T03:03:18;101158.7813;;;;
44734;BME280;30462;52.446;-1.930;2023-06-04T03:04:17;101151.9297;;;;
44734;BME280;30462;52.446;-1.930;2023-06-04T03:05:18;101154.3359;;;;
44734;BME280;30462;52.446;-1.930;2023-06-04T03:06:19;101155.918;;;;
44734;BME280;30462;52.446;-1.930;2023-06-04T03:07:18;101153.9844;;;;
44734;BME280;30462;52.446;-1.930;2023-06-04T03:08:18;101156.2344;;;;
44734;BME280;30462;52.446;-1.930;2023-06-04T03:09:17;101155.1875;;;;
44734;BME280;30462;52.446;-1.930;2023-06-04T03:10:18;101155.7539;;;;
44734;BME280;30462;52.446;-1.930;2023-06-04T03:11:18;101152.0313;;;;
44734;BME280;30462;52.446;-1.930;2023-06-04T03:12:18;101153.293;;;;
44734;BME280;30462;52.446;-1.930;2023-06-04T03:13:17;101154.7578;;;;
44734;BME280;30462;52.446;-1.930;2023-06-04T03:14:18;101152.6836;;;;
44734;BME280;30462;52.446;-1.930;2023-06-04T03:15:18;101153.293;;;;
44734;BME280;30462;52.446;-1.930;2023-06-04T03:16:19;101155.4336;;;;
44734;BME280;30462;52.446;-1.930;2023-06-04T03:17:18;101154.9766;;;;
44734;BME280;30462;52.446;-1.930;2023-06-04T03:18:17;101151.6094;;;;
44734;BME280;30462;52.446;-1.930;2023-06-04T03:19:18;101155.3398;;;;
44734;BME280;30462;52.446;-1.930;2023-06-04T03:20:18;101152.0352;;;;
44734;BME280;30462;52.446;-1.930;2023-06-04T03:21:18;101153.043;;;;
44734;BME280;30462;52.446;-1.930;2023-06-04T03:22:18;101153.8164;;;;
44734;BME280;30462;52.446;-1.930;2023-06-04T03:23:18;101151.1875;;;;
44734;BME280;30462;52.446;-1.930;2023-06-04T03:24:18;101153.7227;;;;
44734;BME280;30462;52.446;-1.930;2023-06-04T03:25:18;101152.1367;;;;
44734;BME280;30462;52.446;-1.930;2023-06-04T03:26:18;101146.5195;;;;
44734;BME280;30462;52.446;-1.930;2023-06-04T03:27:18;101153.332;;;;
44734;BME280;30462;52.446;-1.930;2023-06-04T03:28:17;101149.418;;;;
44734;BME280;30462;52.446;-1.930;2023-06-04T03:29:18;101149.8242;;;;
44734;BME280;30462;52.446;-1.930;2023-06-04T03:30:18;101150.3984;;;;
44734;BME280;30462;52.446;-1.930;2023-06-04T03:31:18;101150.207;;;;
44734;BME280;30462;52.446;-1.930;2023-06-04T03:32:18;101155.2227;;;;
44734;BME280;30462;52.446;-1.930;2023-06-04T03:33:18;101153.7344;;;;
44734;BME280;30462;52.446;-1.930;2023-06-04T03:34:18;101152.7773;;;;
44734;BME280;30462;52.446;-1.930;2023-06-04T03:35:18;101151.3008;;;;
44734;BME280;30462;52.446;-1.930;2023-06-04T03:36:17;101148.7539;;;;
44734;BME280;30462;52.446;-1.930;2023-06-04T03:37:18;101152.2852;;;;
44734;BME280;30462;52.446;-1.930;2023-06-04T03:38:18;101150.2422;;;;
44734;BME280;30462;52.446;-1.930;2023-06-04T03:39:18;101152.668;;;;
44734;BME280;30462;52.446;-1.930;2023-06-04T03:40:18;101152.7383;;;;
44734;BME280;30462;52.446;-1.930;2023-06-04T03:41:18;101154.6836;;;;
44734;BME280;30462;52.446;-1.930;2023-06-04T03:42:17;101155.3203;;;;
44734;BME280;30462;52.446;-1.930;2023-06-04T03:43:18;101149.9453;;;;
44734;BME280;30462;52.446;-1.930;2023-06-04T03:44:19;101152.4258;;;;
44734;BME280;30462;52.446;-1.930;2023-06-04T03:45:18;101152.2227;;;;
44734;BME280;30462;52.446;-1.930;2023-06-04T03:46:18;101154.7539;;;;
44734;BME280;30462;52.446;-1.930;2023-06-04T03:47:18;101150.3906;;;;
44734;BME280;30462;52.446;-1.930;2023-06-04T03:48:17;101152.0234;;;;
44734;BME280;30462;52.446;-1.930;2023-06-04T03:49:17;101152.0898;;;;
44734;BME280;30462;52.446;-1.930;2023-06-04T03:50:18;101154.5273;;;;
44734;BME280;30462;52.446;-1.930;2023-06-04T03:51:18;101155.125;;;;
44734;BME280;30462;52.446;-1.930;2023-06-04T03:52:18;101151.082;;;;
44734;BME280;30462;52.446;-1.930;2023-06-04T03:53:18;101153.707;;;;
44734;BME280;30462;52.446;-1.930;2023-06-04T03:54:18;101154.125;;;;
44734;BME280;30462;52.446;-1.930;2023-06-04T03:55:18;101154.8789;;;;
44734;BME280;30462;52.446;-1.930;2023-06-04T03:56:18;101153.6953;;;;
44734;BME280;30462;52.446;-1.930;2023-06-04T03:57:18;101155.4258;;;;
44734;BME280;30462;52.446;-1.930;2023-06-04T03:58:17;101153.5938;;;;
44734;BME280;30462;52.446;-1.930;2023-06-04T03:59:18;101155.5508;;;;
44734;BME280;30462;52.446;-1.930;2023-06-04T04:00:18;101158.3203;;;;
44734;BME280;30462;52.446;-1.930;2023-06-04T04:01:18;101156.6758;;;;
44734;BME280;30462;52.446;-1.930;2023-06-04T04:02:18;101151.1094;;;;
44734;BME280;30462;52.446;-1.930;2023-06-04T04:03:17;101152.5898;;;;
44734;BME280;30462;52.446;-1.930;2023-06-04T04:04:17;101154.7813;;;;
44734;BME280;30462;52.446;-1.930;2023-06-04T04:05:18;101149.9336;;;;
44734;BME280;30462;52.446;-1.930;2023-06-04T04:06:18;101156.5938;;;;
44734;BME280;30462;52.446;-1.930;2023-06-04T04:07:18;101155.2266;;;;
44734;BME280;30462;52.446;-1.930;2023-06-04T04:08:18;101155.7305;;;;
44734;BME280;30462;52.446;-1.930;2023-06-04T04:09:18;101154.6758;;;;
44734;BME280;30462;52.446;-1.930;2023-06-04T04:10:17;101155.5039;;;;
44734;BME280;30462;52.446;-1.930;2023-06-04T04:11:17;101158.5938;;;;
44734;BME280;30462;52.446;-1.930;2023-06-04T04:12:18;101157.1016;;;;
44734;BME280;30462;52.446;-1.930;2023-06-04T04:13:18;101156.7813;;;;
44734;BME280;30462;52.446;-1.930;2023-06-04T04:14:18;101160.3086;;;;
44734;BME280;30462;52.446;-1.930;2023-06-04T04:15:17;101161.6602;;;;
44734;BME280;30462;52.446;-1.930;2023-06-04T04:16:18;101162.7539;;;;
44734;BME280;30462;52.446;-1.930;2023-06-04T04:17:18;101162.6602;;;;
44734;BME280;30462;52.446;-1.930;2023-06-04T04:18:18;101157.207;;;;
44734;BME280;30462;52.446;-1.930;2023-06-04T04:19:18;101157.25;;;;
44734;BME280;30462;52.446;-1.930;2023-06-04T04:20:18;101155.5859;;;;
44734;BME280;30462;52.446;-1.930;2023-06-04T04:21:18;101154.8086;;;;
44734;BME280;30462;52.446;-1.930;2023-06-04T04:22:17;101156.5586;;;;
44734;BME280;30462;52.446;-1.930;2023-06-04T04:23:18;101154.8477;;;;
44734;BME280;30462;52.446;-1.930;2023-06-04T04:25:18;101161.1719;;;;
44734;BME280;30462;52.446;-1.930;2023-06-04T04:26:18;101157.6094;;;;
44734;BME280;30462;52.446;-1.930;2023-06-04T04:27:18;101160.9609;;;;
44734;BME280;30462;52.446;-1.930;2023-06-04T04:28:17;101161.4688;;;;
44734;BME280;30462;52.446;-1.930;2023-06-04T04:29:18;101163.0313;;;;
44734;BME280;30462;52.446;-1.930;2023-06-04T04:30:18;101162.0742;;;;
44734;BME280;30462;52.446;-1.930;2023-06-04T04:31:17;101163.1406;;;;
44734;BME280;30462;52.446;-1.930;2023-06-04T04:32:18;101162.457;;;;
44734;BME280;30462;52.446;-1.930;2023-06-04T04:33:18;101160.1758;;;;
44734;BME280;30462;52.446;-1.930;2023-06-04T04:34:18;101155.7852;;;;
44734;BME280;30462;52.446;-1.930;2023-06-04T04:35:18;101160.1602;;;;
44734;BME280;30462;52.446;-1.930;2023-06-04T04:36:17;101158.6836;;;;
44734;BME280;30462;52.446;-1.930;2023-06-04T04:37:18;101156.918;;;;
44734;BME280;30462;52.446;-1.930;2023-06-04T04:38:19;101156.1563;;;;
44734;BME280;30462;52.446;-1.930;2023-06-04T04:39:18;101161.1211;;;;
44734;BME280;30462;52.446;-1.930;2023-06-04T04:40:18;101158.9727;;;;
44734;BME280;30462;52.446;-1.930;2023-06-04T04:41:18;101163.75;;;;
44734;BME280;30462;52.446;-1.930;2023-06-04T04:42:17;101162.1875;;;;
44734;BME280;30462;52.446;-1.930;2023-06-04T04:43:19;101159.6523;;;;
44734;BME280;30462;52.446;-1.930;2023-06-04T04:44:18;101161.8984;;;;
44734;BME280;30462;52.446;-1.930;2023-06-04T04:45:18;101164.75;;;;
44734;BME280;30462;52.446;-1.930;2023-06-04T04:46:17;101164.4688;;;;
44734;BME280;30462;52.446;-1.930;2023-06-04T04:47:18;101165.1172;;;;
44734;BME280;30462;52.446;-1.930;2023-06-04T04:48:18;101161.3711;;;;
44734;BME280;30462;52.446;-1.930;2023-06-04T04:49:18;101159.6289;;;;
44734;BME280;30462;52.446;-1.930;2023-06-04T04:50:17;101161.0781;;;;
44734;BME280;30462;52.446;-1.930;2023-06-04T04:51:17;101159.7305;;;;
44734;BME280;30462;52.446;-1.930;2023-06-04T04:52:18;101162.7227;;;;
44734;BME280;30462;52.446;-1.930;2023-06-04T04:53:19;101158.8594;;;;
44734;BME280;30462;52.446;-1.930;2023-06-04T04:54:18;101159.6875;;;;
44734;BME280;30462;52.446;-1.930;2023-06-04T04:55:17;101159.082;;;;
44734;BME280;30462;52.446;-1.930;2023-06-04T04:56:18;101161.6563;;;;
44734;BME280;30462;52.446;-1.930;2023-06-04T04:57:18;101161.1367;;;;
44734;BME280;30462;52.446;-1.930;2023-06-04T04:58:18;101159.7578;;;;
44734;BME280;30462;52.446;-1.930;2023-06-04T04:59:18;101163.7539;;;;
44734;BME280;30462;52.446;-1.930;2023-06-04T05:00:17;101162.8633;;;;
44734;BME280;30462;52.446;-1.930;2023-06-04T05:01:18;101168.8672;;;;
44734;BME280;30462;52.446;-1.930;2023-06-04T05:02:18;101169.2227;;;;
44734;BME280;30462;52.446;-1.930;2023-06-04T05:03:17;101170.2852;;;;
44734;BME280;30462;52.446;-1.930;2023-06-04T05:04:17;101171.6563;;;;
44734;BME280;30462;52.446;-1.930;2023-06-04T05:05:18;101171.7969;;;;
44734;BME280;30462;52.446;-1.930;2023-06-04T05:06:18;101170.5352;;;;
44734;BME280;30462;52.446;-1.930;2023-06-04T05:07:18;101163.1172;;;;
44734;BME280;30462;52.446;-1.930;2023-06-04T05:08:18;101166.5703;;;;
44734;BME280;30462;52.446;-1.930;2023-06-04T05:09:17;101165.6836;;;;
44734;BME280;30462;52.446;-1.930;2023-06-04T05:10:18;101165.1211;;;;
44734;BME280;30462;52.446;-1.930;2023-06-04T05:11:18;101163.6133;;;;
44734;BME280;30462;52.446;-1.930;2023-06-04T05:12:18;101169.7031;;;;
44734;BME280;30462;52.446;-1.930;2023-06-04T05:13:18;101167.9063;;;;
44734;BME280;30462;52.446;-1.930;2023-06-04T05:14:18;101169.5625;;;;
44734;BME280;30462;52.446;-1.930;2023-06-04T05:15:18;101172.7227;;;;
44734;BME280;30462;52.446;-1.930;2023-06-04T05:16:17;101166.5898;;;;
44734;BME280;30462;52.446;-1.930;2023-06-04T05:17:18;101167.8711;;;;
44734;BME280;30462;52.446;-1.930;2023-06-04T05:18:18;101167.2773;;;;
44734;BME280;30462;52.446;-1.930;2023-06-04T05:19:18;101167.3984;;;;
44734;BME280;30462;52.446;-1.930;2023-06-04T05:20:18;101170.168;;;;
44734;BME280;30462;52.446;-1.930;2023-06-04T05:21:17;101167.0703;;;;
44734;BME280;30462;52.446;-1.930;2023-06-04T05:22:17;101167.4023;;;;
44734;BME280;30462;52.446;-1.930;2023-06-04T05:23:18;101168.3242;;;;
44734;BME280;30462;52.446;-1.930;2023-06-04T05:24:18;101169.6367;;;;
44734;BME280;30462;52.446;-1.930;2023-06-04T05:25:18;101169.5977;;;;
44734;BME280;30462;52.446;-1.930;2023-06-04T05:26:18;101164.8711;;;;
44734;BME280;30462;52.446;-1.930;2023-06-04T05:27:17;101171.9531;;;;
44734;BME280;30462;52.446;-1.930;2023-06-04T05:28:18;101168.7969;;;;
44734;BME280;30462;52.446;-1.930;2023-06-04T05:29:18;101170.1289;;;;
44734;BME280;30462;52.446;-1.930;2023-06-04T05:30:18;101168.7852;;;;
44734;BME280;30462;52.446;-1.930;2023-06-04T05:31:18;101171.8477;;;;
44734;BME280;30462;52.446;-1.930;2023-06-04T05:32:17;101171.9727;;;;
44734;BME280;30462;52.446;-1.930;2023-06-04T05:33:18;101173.5742;;;;
44734;BME280;30462;52.446;-1.930;2023-06-04T05:34:18;101175.7461;;;;
44734;BME280;30462;52.446;-1.930;2023-06-04T05:35:18;101178.6914;;;;
44734;BME280;30462;52.446;-1.930;2023-06-04T05:36:19;101174.2695;;;;
44734;BME280;30462;52.446;-1.930;2023-06-04T05:37:18;101179.8867;;;;
44734;BME280;30462;52.446;-1.930;2023-06-04T05:38:18;101178.0039;;;;
44734;BME280;30462;52.446;-1.930;2023-06-04T05:39:17;101178.8828;;;;
44734;BME280;30462;52.446;-1.930;2023-06-04T05:40:18;101176.6797;;;;
44734;BME280;30462;52.446;-1.930;2023-06-04T05:41:17;101178.9023;;;;
44734;BME280;30462;52.446;-1.930;2023-06-04T05:42:18;101179.7773;;;;
44734;BME280;30462;52.446;-1.930;2023-06-04T05:43:18;101180.0313;;;;
44734;BME280;30462;52.446;-1.930;2023-06-04T05:44:18;101182.5273;;;;
44734;BME280;30462;52.446;-1.930;2023-06-04T05:45:18;101180.1055;;;;
44734;BME280;30462;52.446;-1.930;2023-06-04T05:46:18;101182.3359;;;;
44734;BME280;30462;52.446;-1.930;2023-06-04T05:47:17;101179.2109;;;;